PWSweather.com
Personal Weather Stations
Station Observations

SkegnessGB

Lat: 53.147585, Lon: 0.345774

Elevation: 18

Station Type: Fine Offset WH3080

http://www.skegnessweather.info/

High Low Average
Temperature 54.7°F12.6°C 44.8°F7.1°C 49.3°F9.6°C
Dew Point 50.3°F10.2°C 39.0°F3.9°C 44.2°F6.8°C
Winds 15.9 mph 25.6 kmh 4.1 mph 6.6 kmh 9.0 mph SSW14.5 kmh SSW
Wind Gusts 18.5 mph29.8 kmh 4.9 mph7.9 kmh 10.0 mph16.1 kmh
Humidity 91% 73% 83%
Pressure 29.65 in1004.1 mb 29.39 in995.3 mb -
Precipitation 0.09 in2.3 mm - -
Hour Temp Dew Point Humidity Winds Wind Gusts Pressure Precip Precip Rate Daily Precip Total
12:00 AM 47.3°F8.5°C 42.1°F5.6°C 82% 9.0 mph SSW14.5 kmh SSW 13.3 mph21.4 kmh 29.65 in1004.1 mb 0.00 in0.0 mm 0.00 in0.0 mm 0.00 in0.0 mm
12:10 AM 47.3°F8.5°C 42.1°F5.6°C 82% 8.8 mph SW14.2 kmh SW 10.8 mph17.4 kmh 29.65 in1004.1 mb 0.00 in0.0 mm 0.00 in0.0 mm 0.00 in0.0 mm
12:20 AM 47.5°F8.6°C 42.3°F5.7°C 82% 11.2 mph SW18.0 kmh SW 11.8 mph19.0 kmh 29.65 in1004.1 mb 0.00 in0.0 mm 0.00 in0.0 mm 0.00 in0.0 mm
12:30 AM 47.5°F8.6°C 42.3°F5.7°C 82% 10.1 mph WSW16.3 kmh WSW 9.1 mph14.6 kmh 29.65 in1004.1 mb 0.00 in0.0 mm 0.00 in0.0 mm 0.00 in0.0 mm
12:40 AM 47.5°F8.6°C 42.3°F5.7°C 82% 9.2 mph SSE14.8 kmh SSE 8.4 mph13.5 kmh 29.65 in1004.1 mb 0.00 in0.0 mm 0.00 in0.0 mm 0.00 in0.0 mm
12:50 AM 47.8°F8.8°C 42.6°F5.9°C 82% 10.2 mph SSE16.4 kmh SSE 12.5 mph20.1 kmh 29.65 in1004.1 mb 0.00 in0.0 mm 0.00 in0.0 mm 0.00 in0.0 mm
01:00 AM 48.2°F9.0°C 43.3°F6.3°C 83% 11.7 mph SSW18.8 kmh SSW 13.3 mph21.4 kmh 29.64 in1003.7 mb 0.00 in0.0 mm 0.00 in0.0 mm 0.00 in0.0 mm
01:10 AM 48.7°F9.3°C 43.8°F6.6°C 83% 12.6 mph WSW20.3 kmh WSW 10.8 mph17.4 kmh 29.64 in1003.7 mb 0.00 in0.0 mm 0.00 in0.0 mm 0.00 in0.0 mm
01:20 AM 48.9°F9.4°C 44.0°F6.7°C 83% 11.3 mph SSW18.2 kmh SSW 10.8 mph17.4 kmh 29.64 in1003.7 mb 0.00 in0.0 mm 0.00 in0.0 mm 0.00 in0.0 mm
01:30 AM 48.9°F9.4°C 44.0°F6.7°C 83% 9.4 mph SSW15.1 kmh SSW 9.1 mph14.6 kmh 29.64 in1003.7 mb 0.00 in0.0 mm 0.00 in0.0 mm 0.00 in0.0 mm
01:40 AM 49.1°F9.5°C 43.8°F6.6°C 82% 7.9 mph SSE12.7 kmh SSE 8.4 mph13.5 kmh 29.64 in1003.7 mb 0.00 in0.0 mm 0.00 in0.0 mm 0.00 in0.0 mm
01:50 AM 49.1°F9.5°C 43.8°F6.6°C 82% 9.3 mph SSW15.0 kmh SSW 9.1 mph14.6 kmh 29.64 in1003.7 mb 0.00 in0.0 mm 0.00 in0.0 mm 0.00 in0.0 mm
02:00 AM 48.9°F9.4°C 43.7°F6.5°C 82% 8.4 mph SW13.5 kmh SW 8.4 mph13.5 kmh 29.64 in1003.7 mb 0.00 in0.0 mm 0.00 in0.0 mm 0.00 in0.0 mm
02:10 AM 48.7°F9.3°C 43.5°F6.4°C 82% 7.8 mph SSW12.6 kmh SSW 10.1 mph16.3 kmh 29.63 in1003.4 mb 0.00 in0.0 mm 0.00 in0.0 mm 0.00 in0.0 mm
02:20 AM 48.6°F9.2°C 43.6°F6.4°C 83% 7.8 mph S12.6 kmh S 9.1 mph14.6 kmh 29.63 in1003.4 mb 0.00 in0.0 mm 0.00 in0.0 mm 0.00 in0.0 mm
02:30 AM 48.7°F9.3°C 43.8°F6.6°C 83% 7.9 mph SSW12.7 kmh SSW 9.1 mph14.6 kmh 29.63 in1003.4 mb 0.00 in0.0 mm 0.00 in0.0 mm 0.00 in0.0 mm
02:40 AM 48.7°F9.3°C 43.8°F6.6°C 83% 10.9 mph S17.5 kmh S 10.8 mph17.4 kmh 29.63 in1003.4 mb 0.00 in0.0 mm 0.00 in0.0 mm 0.00 in0.0 mm
02:50 AM 48.6°F9.2°C 43.6°F6.4°C 83% 9.6 mph SSW15.4 kmh SSW 10.1 mph16.3 kmh 29.62 in1003.0 mb 0.00 in0.0 mm 0.00 in0.0 mm 0.00 in0.0 mm
03:00 AM 48.6°F9.2°C 43.6°F6.4°C 83% 9.3 mph SSW15.0 kmh SSW 10.1 mph16.3 kmh 29.61 in1002.7 mb 0.00 in0.0 mm 0.00 in0.0 mm 0.00 in0.0 mm
03:10 AM 48.6°F9.2°C 43.6°F6.4°C 83% 10.2 mph SW16.4 kmh SW 8.4 mph13.5 kmh 29.61 in1002.7 mb 0.00 in0.0 mm 0.00 in0.0 mm 0.00 in0.0 mm
03:20 AM 48.7°F9.3°C 44.1°F6.7°C 84% 9.4 mph SW15.1 kmh SW 9.1 mph14.6 kmh 29.61 in1002.7 mb 0.00 in0.0 mm 0.00 in0.0 mm 0.00 in0.0 mm
03:30 AM 48.9°F9.4°C 44.3°F6.8°C 84% 9.5 mph SW15.3 kmh SW 10.8 mph17.4 kmh 29.61 in1002.7 mb 0.00 in0.0 mm 0.00 in0.0 mm 0.00 in0.0 mm
03:40 AM 48.9°F9.4°C 44.3°F6.8°C 84% 7.8 mph SSW12.6 kmh SSW 8.4 mph13.5 kmh 29.60 in1002.4 mb 0.00 in0.0 mm 0.00 in0.0 mm 0.00 in0.0 mm
03:50 AM 48.7°F9.3°C 44.1°F6.7°C 84% 8.8 mph SW14.2 kmh SW 9.1 mph14.6 kmh 29.60 in1002.4 mb 0.00 in0.0 mm 0.00 in0.0 mm 0.00 in0.0 mm
04:00 AM 48.6°F9.2°C 43.9°F6.6°C 84% 9.9 mph S15.9 kmh S 10.8 mph17.4 kmh 29.60 in1002.4 mb 0.00 in0.0 mm 0.00 in0.0 mm 0.00 in0.0 mm
04:10 AM 48.6°F9.2°C 43.9°F6.6°C 84% 9.6 mph SSW15.4 kmh SSW 10.8 mph17.4 kmh 29.60 in1002.4 mb 0.00 in0.0 mm 0.00 in0.0 mm 0.00 in0.0 mm
04:20 AM 48.6°F9.2°C 43.9°F6.6°C 84% 9.8 mph S15.8 kmh S 10.1 mph16.3 kmh 29.59 in1002.0 mb 0.00 in0.0 mm 0.00 in0.0 mm 0.00 in0.0 mm
04:30 AM 48.4°F9.1°C 44.1°F6.7°C 85% 10.0 mph S16.1 kmh S 10.1 mph16.3 kmh 29.59 in1002.0 mb 0.00 in0.0 mm 0.00 in0.0 mm 0.00 in0.0 mm
04:40 AM 48.2°F9.0°C 43.9°F6.6°C 85% 8.9 mph W14.3 kmh W 10.1 mph16.3 kmh 29.59 in1002.0 mb 0.00 in0.0 mm 0.00 in0.0 mm 0.00 in0.0 mm
04:50 AM 48.2°F9.0°C 43.9°F6.6°C 85% 9.1 mph SW14.6 kmh SW 8.4 mph13.5 kmh 29.59 in1002.0 mb 0.00 in0.0 mm 0.00 in0.0 mm 0.00 in0.0 mm
05:00 AM 48.2°F9.0°C 44.2°F6.8°C 86% 10.2 mph SW16.4 kmh SW 10.1 mph16.3 kmh 29.57 in1001.4 mb 0.00 in0.0 mm 0.00 in0.0 mm 0.00 in0.0 mm
05:10 AM 48.2°F9.0°C 44.2°F6.8°C 86% 10.3 mph SSE16.6 kmh SSE 9.1 mph14.6 kmh 29.57 in1001.4 mb 0.00 in0.0 mm 0.00 in0.0 mm 0.00 in0.0 mm
05:20 AM 48.4°F9.1°C 44.7°F7.1°C 87% 9.3 mph S15.0 kmh S 10.1 mph16.3 kmh 29.57 in1001.4 mb 0.00 in0.0 mm 0.00 in0.0 mm 0.00 in0.0 mm
05:30 AM 48.4°F9.1°C 44.7°F7.1°C 87% 9.5 mph WSW15.3 kmh WSW 10.1 mph16.3 kmh 29.57 in1001.4 mb 0.00 in0.0 mm 0.00 in0.0 mm 0.00 in0.0 mm
05:40 AM 48.4°F9.1°C 44.7°F7.1°C 87% 8.7 mph S14.0 kmh S 10.1 mph16.3 kmh 29.56 in1001.0 mb 0.00 in0.0 mm 0.00 in0.0 mm 0.00 in0.0 mm
05:50 AM 48.6°F9.2°C 44.9°F7.2°C 87% 8.0 mph S12.9 kmh S 10.1 mph16.3 kmh 29.57 in1001.4 mb 0.00 in0.0 mm 0.00 in0.0 mm 0.00 in0.0 mm
06:00 AM 48.6°F9.2°C 44.9°F7.2°C 87% 9.4 mph S15.1 kmh S 10.1 mph16.3 kmh 29.56 in1001.0 mb 0.00 in0.0 mm 0.00 in0.0 mm 0.00 in0.0 mm
06:10 AM 48.6°F9.2°C 45.2°F7.3°C 88% 8.1 mph SSW13.0 kmh SSW 8.4 mph13.5 kmh 29.55 in1000.7 mb 0.00 in0.0 mm 0.00 in0.0 mm 0.00 in0.0 mm
06:20 AM 48.7°F9.3°C 45.3°F7.4°C 88% 8.3 mph SSW13.4 kmh SSW 9.1 mph14.6 kmh 29.55 in1000.7 mb 0.00 in0.0 mm 0.00 in0.0 mm 0.00 in0.0 mm
06:30 AM 48.7°F9.3°C 45.3°F7.4°C 88% 7.1 mph SSW11.4 kmh SSW 9.1 mph14.6 kmh 29.55 in1000.7 mb 0.00 in0.0 mm 0.00 in0.0 mm 0.00 in0.0 mm
06:40 AM 48.9°F9.4°C 45.5°F7.5°C 88% 8.3 mph SSW13.4 kmh SSW 10.1 mph16.3 kmh 29.54 in1000.3 mb 0.01 in0.3 mm 0.06 in1.5 mm 0.01 in0.3 mm
06:50 AM 49.1°F9.5°C 45.7°F7.6°C 88% 10.1 mph SSW16.3 kmh SSW 10.1 mph16.3 kmh 29.54 in1000.3 mb 0.02 in0.5 mm 0.06 in1.5 mm 0.02 in0.5 mm
07:00 AM 49.1°F9.5°C 45.7°F7.6°C 88% 10.0 mph SSE16.1 kmh SSE 11.8 mph19.0 kmh 29.54 in1000.3 mb 0.04 in1.0 mm 0.02 in0.5 mm 0.04 in1.0 mm
07:10 AM 49.1°F9.5°C 45.7°F7.6°C 88% 9.9 mph SSW15.9 kmh SSW 11.8 mph19.0 kmh 29.53 in1000.0 mb 0.06 in1.5 mm 0.12 in3.0 mm 0.06 in1.5 mm
07:20 AM 49.3°F9.6°C 46.2°F7.9°C 89% 13.5 mph SSW21.7 kmh SSW 14.3 mph23.0 kmh 29.52 in999.7 mb 0.07 in1.8 mm 0.06 in1.5 mm 0.07 in1.8 mm
07:30 AM 49.1°F9.5°C 46.0°F7.8°C 89% 13.4 mph S21.6 kmh S 14.3 mph23.0 kmh 29.52 in999.7 mb 0.08 in2.0 mm 0.06 in1.5 mm 0.08 in2.0 mm
07:40 AM 49.1°F9.5°C 46.0°F7.8°C 89% 14.2 mph S22.9 kmh S 13.3 mph21.4 kmh 29.50 in999.0 mb 0.07 in1.8 mm 0.00 in0.0 mm 0.08 in2.0 mm
07:50 AM 49.1°F9.5°C 46.0°F7.8°C 89% 12.6 mph S20.3 kmh S 15.0 mph24.1 kmh 29.50 in999.0 mb 0.06 in1.5 mm 0.00 in0.0 mm 0.08 in2.0 mm
08:00 AM 48.9°F9.4°C 45.8°F7.7°C 89% 13.7 mph S22.0 kmh S 14.3 mph23.0 kmh 29.51 in999.3 mb 0.05 in1.3 mm 0.00 in0.0 mm 0.08 in2.0 mm
08:10 AM 48.9°F9.4°C 45.8°F7.7°C 89% 13.0 mph S20.9 kmh S 10.8 mph17.4 kmh 29.51 in999.3 mb 0.02 in0.5 mm 0.00 in0.0 mm 0.08 in2.0 mm
08:20 AM 49.1°F9.5°C 46.3°F7.9°C 90% 12.9 mph SW20.8 kmh SW 14.3 mph23.0 kmh 29.50 in999.0 mb 0.01 in0.3 mm 0.00 in0.0 mm 0.08 in2.0 mm
08:30 AM 49.3°F9.6°C 46.5°F8.1°C 90% 15.9 mph S25.6 kmh S 18.5 mph29.8 kmh 29.50 in999.0 mb 0.00 in0.0 mm 0.00 in0.0 mm 0.08 in2.0 mm
08:40 AM 49.5°F9.7°C 46.6°F8.1°C 90% 14.2 mph S22.9 kmh S 15.0 mph24.1 kmh 29.50 in999.0 mb 0.00 in0.0 mm 0.00 in0.0 mm 0.08 in2.0 mm
08:50 AM 49.6°F9.8°C 46.8°F8.2°C 90% 13.1 mph SSE21.1 kmh SSE 13.3 mph21.4 kmh 29.50 in999.0 mb 0.00 in0.0 mm 0.00 in0.0 mm 0.08 in2.0 mm
09:00 AM 49.8°F9.9°C 47.0°F8.3°C 90% 12.5 mph SSW20.1 kmh SSW 13.3 mph21.4 kmh 29.49 in998.6 mb 0.00 in0.0 mm 0.00 in0.0 mm 0.08 in2.0 mm
09:10 AM 50.0°F10.0°C 47.2°F8.4°C 90% 12.0 mph NE19.3 kmh NE 11.8 mph19.0 kmh 29.49 in998.6 mb 0.00 in0.0 mm 0.00 in0.0 mm 0.08 in2.0 mm
09:20 AM 50.2°F10.1°C 47.4°F8.6°C 90% 10.7 mph S17.2 kmh S 11.8 mph19.0 kmh 29.48 in998.3 mb 0.00 in0.0 mm 0.00 in0.0 mm 0.08 in2.0 mm
09:30 AM 50.2°F10.1°C 47.4°F8.6°C 90% 12.2 mph W19.6 kmh W 12.5 mph20.1 kmh 29.48 in998.3 mb 0.00 in0.0 mm 0.00 in0.0 mm 0.08 in2.0 mm
09:40 AM 50.4°F10.2°C 47.5°F8.6°C 90% 11.8 mph SW19.0 kmh SW 12.5 mph20.1 kmh 29.47 in998.0 mb 0.00 in0.0 mm 0.00 in0.0 mm 0.08 in2.0 mm
09:50 AM 50.5°F10.3°C 47.7°F8.7°C 90% 12.3 mph WSW19.8 kmh WSW 16.0 mph25.7 kmh 29.48 in998.3 mb 0.00 in0.0 mm 0.00 in0.0 mm 0.08 in2.0 mm
10:00 AM 50.9°F10.5°C 48.4°F9.1°C 91% 10.0 mph WNW16.1 kmh WNW 12.5 mph20.1 kmh 29.48 in998.3 mb 0.00 in0.0 mm 0.00 in0.0 mm 0.08 in2.0 mm
10:10 AM 51.3°F10.7°C 48.7°F9.3°C 91% 11.6 mph SSW18.7 kmh SSW 10.8 mph17.4 kmh 29.48 in998.3 mb 0.00 in0.0 mm 0.00 in0.0 mm 0.08 in2.0 mm
10:20 AM 51.6°F10.9°C 49.1°F9.5°C 91% 11.6 mph SSW18.7 kmh SSW 11.8 mph19.0 kmh 29.47 in998.0 mb 0.00 in0.0 mm 0.00 in0.0 mm 0.08 in2.0 mm
10:30 AM 52.0°F11.1°C 49.4°F9.7°C 91% 11.4 mph S18.3 kmh S 13.3 mph21.4 kmh 29.47 in998.0 mb 0.00 in0.0 mm 0.00 in0.0 mm 0.08 in2.0 mm
10:40 AM 52.2°F11.2°C 49.6°F9.8°C 91% 12.1 mph SSW19.5 kmh SSW 16.7 mph26.9 kmh 29.46 in997.6 mb 0.00 in0.0 mm 0.00 in0.0 mm 0.08 in2.0 mm
10:50 AM 52.5°F11.4°C 50.0°F10.0°C 91% 13.1 mph S21.1 kmh S 14.3 mph23.0 kmh 29.46 in997.6 mb 0.00 in0.0 mm 0.00 in0.0 mm 0.08 in2.0 mm
11:00 AM 52.7°F11.5°C 50.1°F10.1°C 91% 13.5 mph SSW21.7 kmh SSW 16.0 mph25.7 kmh 29.46 in997.6 mb 0.00 in0.0 mm 0.00 in0.0 mm 0.08 in2.0 mm
11:10 AM 52.9°F11.6°C 50.3°F10.2°C 91% 11.7 mph SE18.8 kmh SE 13.3 mph21.4 kmh 29.45 in997.3 mb 0.00 in0.0 mm 0.00 in0.0 mm 0.08 in2.0 mm
11:20 AM 52.9°F11.6°C 50.0°F10.0°C 90% 12.3 mph SW19.8 kmh SW 16.0 mph25.7 kmh 29.45 in997.3 mb 0.00 in0.0 mm 0.00 in0.0 mm 0.08 in2.0 mm
11:30 AM 52.9°F11.6°C 50.0°F10.0°C 90% 14.9 mph S24.0 kmh S 15.0 mph24.1 kmh 29.43 in996.6 mb 0.00 in0.0 mm 0.00 in0.0 mm 0.08 in2.0 mm
11:40 AM 52.9°F11.6°C 49.7°F9.8°C 89% 14.1 mph SSE22.7 kmh SSE 14.3 mph23.0 kmh 29.44 in997.0 mb 0.00 in0.0 mm 0.00 in0.0 mm 0.08 in2.0 mm
11:50 AM 53.1°F11.7°C 49.3°F9.6°C 87% 13.9 mph NNE22.4 kmh NNE 13.3 mph21.4 kmh 29.43 in996.6 mb 0.00 in0.0 mm 0.00 in0.0 mm 0.08 in2.0 mm
12:00 PM 53.1°F11.7°C 49.0°F9.4°C 86% 12.7 mph SW20.4 kmh SW 11.8 mph19.0 kmh 29.43 in996.6 mb 0.00 in0.0 mm 0.00 in0.0 mm 0.08 in2.0 mm
12:10 PM 53.2°F11.8°C 48.8°F9.3°C 85% 12.8 mph SW20.6 kmh SW 12.5 mph20.1 kmh 29.42 in996.3 mb 0.00 in0.0 mm 0.00 in0.0 mm 0.08 in2.0 mm
12:20 PM 53.6°F12.0°C 48.2°F9.0°C 82% 12.3 mph SW19.8 kmh SW 12.5 mph20.1 kmh 29.42 in996.3 mb 0.00 in0.0 mm 0.00 in0.0 mm 0.08 in2.0 mm
12:30 PM 54.3°F12.4°C 48.9°F9.4°C 82% 12.0 mph WSW19.3 kmh WSW 12.5 mph20.1 kmh 29.42 in996.3 mb 0.00 in0.0 mm 0.00 in0.0 mm 0.08 in2.0 mm
12:40 PM 54.3°F12.4°C 48.6°F9.2°C 81% 11.8 mph S19.0 kmh S 13.3 mph21.4 kmh 29.42 in996.3 mb 0.00 in0.0 mm 0.00 in0.0 mm 0.08 in2.0 mm
12:50 PM 54.3°F12.4°C 48.3°F9.1°C 80% 11.3 mph SSW18.2 kmh SSW 10.8 mph17.4 kmh 29.41 in995.9 mb 0.00 in0.0 mm 0.00 in0.0 mm 0.08 in2.0 mm
01:00 PM 54.1°F12.3°C 48.1°F8.9°C 80% 9.9 mph S15.9 kmh S 10.8 mph17.4 kmh 29.41 in995.9 mb 0.00 in0.0 mm 0.00 in0.0 mm 0.08 in2.0 mm
01:10 PM 54.1°F12.3°C 48.1°F8.9°C 80% 11.1 mph W17.9 kmh W 11.8 mph19.0 kmh 29.41 in995.9 mb 0.00 in0.0 mm 0.00 in0.0 mm 0.08 in2.0 mm
01:20 PM 54.3°F12.4°C 47.9°F8.8°C 79% 11.9 mph SSE19.2 kmh SSE 14.3 mph23.0 kmh 29.40 in995.6 mb 0.00 in0.0 mm 0.00 in0.0 mm 0.08 in2.0 mm
01:30 PM 54.5°F12.5°C 47.8°F8.8°C 78% 12.8 mph SSW20.6 kmh SSW 13.3 mph21.4 kmh 29.39 in995.3 mb 0.00 in0.0 mm 0.00 in0.0 mm 0.08 in2.0 mm
01:40 PM 54.7°F12.6°C 47.3°F8.5°C 76% 11.1 mph WSW17.9 kmh WSW 11.8 mph19.0 kmh 29.40 in995.6 mb 0.00 in0.0 mm 0.00 in0.0 mm 0.08 in2.0 mm
01:50 PM 54.3°F12.4°C 46.6°F8.1°C 75% 11.5 mph SSW18.5 kmh SSW 15.0 mph24.1 kmh 29.39 in995.3 mb 0.00 in0.0 mm 0.00 in0.0 mm 0.08 in2.0 mm
02:00 PM 53.8°F12.1°C 46.0°F7.8°C 75% 11.5 mph SSW18.5 kmh SSW 10.8 mph17.4 kmh 29.40 in995.6 mb 0.00 in0.0 mm 0.00 in0.0 mm 0.08 in2.0 mm
02:10 PM 53.6°F12.0°C 45.5°F7.5°C 74% 11.8 mph S19.0 kmh S 12.5 mph20.1 kmh 29.40 in995.6 mb 0.00 in0.0 mm 0.00 in0.0 mm 0.08 in2.0 mm
02:20 PM 53.4°F11.9°C 46.4°F8.0°C 77% 9.3 mph WSW15.0 kmh WSW 9.1 mph14.6 kmh 29.40 in995.6 mb 0.00 in0.0 mm 0.00 in0.0 mm 0.08 in2.0 mm
02:30 PM 53.6°F12.0°C 45.2°F7.3°C 73% 10.4 mph SW16.7 kmh SW 13.3 mph21.4 kmh 29.40 in995.6 mb 0.00 in0.0 mm 0.00 in0.0 mm 0.08 in2.0 mm
02:40 PM 53.6°F12.0°C 45.2°F7.3°C 73% 10.1 mph SW16.3 kmh SW 11.8 mph19.0 kmh 29.40 in995.6 mb 0.00 in0.0 mm 0.00 in0.0 mm 0.08 in2.0 mm
02:50 PM 53.4°F11.9°C 45.7°F7.6°C 75% 10.4 mph SW16.7 kmh SW 10.8 mph17.4 kmh 29.40 in995.6 mb 0.00 in0.0 mm 0.00 in0.0 mm 0.08 in2.0 mm
03:00 PM 52.9°F11.6°C 45.2°F7.3°C 75% 9.7 mph SW15.6 kmh SW 11.8 mph19.0 kmh 29.40 in995.6 mb 0.00 in0.0 mm 0.00 in0.0 mm 0.08 in2.0 mm
03:10 PM 52.3°F11.3°C 44.6°F7.0°C 75% 9.9 mph NW15.9 kmh NW 8.4 mph13.5 kmh 29.40 in995.6 mb 0.00 in0.0 mm 0.00 in0.0 mm 0.08 in2.0 mm
03:20 PM 52.2°F11.2°C 44.5°F6.9°C 75% 8.8 mph SSW14.2 kmh SSW 8.4 mph13.5 kmh 29.40 in995.6 mb 0.00 in0.0 mm 0.00 in0.0 mm 0.08 in2.0 mm
03:30 PM 52.0°F11.1°C 44.3°F6.8°C 75% 7.2 mph SSW11.6 kmh SSW 8.4 mph13.5 kmh 29.40 in995.6 mb 0.00 in0.0 mm 0.00 in0.0 mm 0.08 in2.0 mm
03:40 PM 51.6°F10.9°C 44.0°F6.7°C 75% 4.9 mph S7.9 kmh S 4.9 mph7.9 kmh 29.41 in995.9 mb 0.00 in0.0 mm 0.00 in0.0 mm 0.08 in2.0 mm
03:50 PM 51.6°F10.9°C 44.0°F6.7°C 75% 6.6 mph SW10.6 kmh SW 7.6 mph12.2 kmh 29.41 in995.9 mb 0.00 in0.0 mm 0.00 in0.0 mm 0.08 in2.0 mm
04:00 PM 51.4°F10.8°C 44.1°F6.7°C 76% 5.9 mph WSW9.5 kmh WSW 7.6 mph12.2 kmh 29.42 in996.3 mb 0.00 in0.0 mm 0.00 in0.0 mm 0.08 in2.0 mm
04:10 PM 51.3°F10.7°C 44.0°F6.7°C 76% 7.9 mph SW12.7 kmh SW 9.1 mph14.6 kmh 29.41 in995.9 mb 0.00 in0.0 mm 0.00 in0.0 mm 0.08 in2.0 mm
04:20 PM 50.9°F10.5°C 43.9°F6.6°C 77% 6.3 mph WSW10.1 kmh WSW 8.4 mph13.5 kmh 29.42 in996.3 mb 0.00 in0.0 mm 0.00 in0.0 mm 0.08 in2.0 mm
04:30 PM 50.4°F10.2°C 43.8°F6.6°C 78% 7.5 mph SW12.1 kmh SW 12.5 mph20.1 kmh 29.43 in996.6 mb 0.00 in0.0 mm 0.00 in0.0 mm 0.08 in2.0 mm
04:40 PM 49.8°F9.9°C 43.6°F6.4°C 79% 8.5 mph SSW13.7 kmh SSW 7.6 mph12.2 kmh 29.43 in996.6 mb 0.01 in0.3 mm 0.06 in1.5 mm 0.09 in2.3 mm
04:50 PM 49.5°F9.7°C 43.5°F6.4°C 80% 6.8 mph WSW10.9 kmh WSW 9.1 mph14.6 kmh 29.43 in996.6 mb 0.01 in0.3 mm 0.00 in0.0 mm 0.09 in2.3 mm
05:00 PM 49.1°F9.5°C 43.2°F6.2°C 80% 6.5 mph SW10.5 kmh SW 7.6 mph12.2 kmh 29.44 in997.0 mb 0.01 in0.3 mm 0.00 in0.0 mm 0.09 in2.3 mm
05:10 PM 49.1°F9.5°C 43.2°F6.2°C 80% 6.9 mph WNW11.1 kmh WNW 6.6 mph10.6 kmh 29.45 in997.3 mb 0.01 in0.3 mm 0.00 in0.0 mm 0.09 in2.3 mm
05:20 PM 48.7°F9.3°C 43.2°F6.2°C 81% 8.6 mph WSW13.8 kmh WSW 10.1 mph16.3 kmh 29.45 in997.3 mb 0.01 in0.3 mm 0.00 in0.0 mm 0.09 in2.3 mm
05:30 PM 48.6°F9.2°C 43.0°F6.1°C 81% 9.0 mph SW14.5 kmh SW 9.1 mph14.6 kmh 29.45 in997.3 mb 0.01 in0.3 mm 0.00 in0.0 mm 0.09 in2.3 mm
05:40 PM 48.2°F9.0°C 42.6°F5.9°C 81% 5.1 mph SSW8.2 kmh SSW 6.6 mph10.6 kmh 29.45 in997.3 mb 0.00 in0.0 mm 0.00 in0.0 mm 0.09 in2.3 mm
05:50 PM 47.8°F8.8°C 42.3°F5.7°C 81% 6.6 mph SW10.6 kmh SW 7.6 mph12.2 kmh 29.46 in997.6 mb 0.00 in0.0 mm 0.00 in0.0 mm 0.09 in2.3 mm
06:00 PM 47.3°F8.5°C 41.8°F5.4°C 81% 6.4 mph SW10.3 kmh SW 7.6 mph12.2 kmh 29.46 in997.6 mb 0.00 in0.0 mm 0.00 in0.0 mm 0.09 in2.3 mm
06:10 PM 47.1°F8.4°C 41.6°F5.3°C 81% 6.7 mph SW10.8 kmh SW 7.6 mph12.2 kmh 29.47 in998.0 mb 0.00 in0.0 mm 0.00 in0.0 mm 0.09 in2.3 mm
06:20 PM 47.1°F8.4°C 41.6°F5.3°C 81% 5.9 mph WSW9.5 kmh WSW 7.6 mph12.2 kmh 29.48 in998.3 mb 0.00 in0.0 mm 0.00 in0.0 mm 0.09 in2.3 mm
06:30 PM 47.3°F8.5°C 41.8°F5.4°C 81% 7.0 mph SE11.3 kmh SE 10.8 mph17.4 kmh 29.49 in998.6 mb 0.00 in0.0 mm 0.00 in0.0 mm 0.09 in2.3 mm
06:40 PM 47.3°F8.5°C 41.8°F5.4°C 81% 6.3 mph SSW10.1 kmh SSW 9.1 mph14.6 kmh 29.49 in998.6 mb 0.00 in0.0 mm 0.00 in0.0 mm 0.09 in2.3 mm
06:50 PM 47.3°F8.5°C 41.4°F5.2°C 80% 6.7 mph SSW10.8 kmh SSW 6.6 mph10.6 kmh 29.50 in999.0 mb 0.00 in0.0 mm 0.00 in0.0 mm 0.09 in2.3 mm
07:00 PM 47.3°F8.5°C 41.4°F5.2°C 80% 7.3 mph SW11.7 kmh SW 13.3 mph21.4 kmh 29.50 in999.0 mb 0.00 in0.0 mm 0.00 in0.0 mm 0.09 in2.3 mm
07:10 PM 47.1°F8.4°C 40.9°F4.9°C 79% 6.7 mph WSW10.8 kmh WSW 8.4 mph13.5 kmh 29.51 in999.3 mb 0.00 in0.0 mm 0.00 in0.0 mm 0.09 in2.3 mm
07:20 PM 47.1°F8.4°C 40.9°F4.9°C 79% 8.4 mph WSW13.5 kmh WSW 9.1 mph14.6 kmh 29.52 in999.7 mb 0.00 in0.0 mm 0.00 in0.0 mm 0.09 in2.3 mm
07:30 PM 47.1°F8.4°C 40.9°F4.9°C 79% 7.2 mph SW11.6 kmh SW 10.1 mph16.3 kmh 29.52 in999.7 mb 0.00 in0.0 mm 0.00 in0.0 mm 0.09 in2.3 mm
07:40 PM 46.9°F8.3°C 40.8°F4.9°C 79% 6.9 mph SW11.1 kmh SW 10.1 mph16.3 kmh 29.53 in1000.0 mb 0.00 in0.0 mm 0.00 in0.0 mm 0.09 in2.3 mm
07:50 PM 46.8°F8.2°C 40.9°F4.9°C 80% 7.1 mph WSW11.4 kmh WSW 7.6 mph12.2 kmh 29.55 in1000.7 mb 0.00 in0.0 mm 0.00 in0.0 mm 0.09 in2.3 mm
08:00 PM 46.8°F8.2°C 40.9°F4.9°C 80% 8.1 mph W13.0 kmh W 7.6 mph12.2 kmh 29.55 in1000.7 mb 0.00 in0.0 mm 0.00 in0.0 mm 0.09 in2.3 mm
08:10 PM 46.8°F8.2°C 40.9°F4.9°C 80% 8.6 mph SW13.8 kmh SW 9.1 mph14.6 kmh 29.55 in1000.7 mb 0.00 in0.0 mm 0.00 in0.0 mm 0.09 in2.3 mm
08:20 PM 46.6°F8.1°C 40.7°F4.8°C 80% 8.5 mph SW13.7 kmh SW 10.8 mph17.4 kmh 29.56 in1001.0 mb 0.00 in0.0 mm 0.00 in0.0 mm 0.09 in2.3 mm
08:30 PM 46.4°F8.0°C 40.6°F4.8°C 80% 6.8 mph SW10.9 kmh SW 8.4 mph13.5 kmh 29.57 in1001.4 mb 0.00 in0.0 mm 0.00 in0.0 mm 0.09 in2.3 mm
08:40 PM 46.2°F7.9°C 40.4°F4.7°C 80% 6.4 mph NW10.3 kmh NW 8.4 mph13.5 kmh 29.57 in1001.4 mb 0.00 in0.0 mm 0.00 in0.0 mm 0.09 in2.3 mm
08:50 PM 45.9°F7.7°C 40.0°F4.4°C 80% 5.5 mph SW8.9 kmh SW 7.6 mph12.2 kmh 29.58 in1001.7 mb 0.00 in0.0 mm 0.00 in0.0 mm 0.09 in2.3 mm
09:00 PM 45.7°F7.6°C 39.9°F4.4°C 80% 5.9 mph WSW9.5 kmh WSW 5.9 mph9.5 kmh 29.58 in1001.7 mb 0.00 in0.0 mm 0.00 in0.0 mm 0.09 in2.3 mm
09:10 PM 45.7°F7.6°C 39.9°F4.4°C 80% 4.6 mph S7.4 kmh S 6.6 mph10.6 kmh 29.59 in1002.0 mb 0.00 in0.0 mm 0.00 in0.0 mm 0.09 in2.3 mm
09:20 PM 45.7°F7.6°C 39.9°F4.4°C 80% 5.3 mph WSW8.5 kmh WSW 5.9 mph9.5 kmh 29.59 in1002.0 mb 0.00 in0.0 mm 0.00 in0.0 mm 0.09 in2.3 mm
09:30 PM 45.7°F7.6°C 39.9°F4.4°C 80% 5.0 mph SSE8.0 kmh SSE 6.6 mph10.6 kmh 29.60 in1002.4 mb 0.00 in0.0 mm 0.00 in0.0 mm 0.09 in2.3 mm
09:40 PM 45.5°F7.5°C 39.7°F4.3°C 80% 5.5 mph SE8.9 kmh SE 6.6 mph10.6 kmh 29.60 in1002.4 mb 0.00 in0.0 mm 0.00 in0.0 mm 0.09 in2.3 mm
09:50 PM 45.3°F7.4°C 39.5°F4.2°C 80% 4.7 mph SSW7.6 kmh SSW 4.9 mph7.9 kmh 29.61 in1002.7 mb 0.00 in0.0 mm 0.00 in0.0 mm 0.09 in2.3 mm
10:00 PM 45.3°F7.4°C 39.5°F4.2°C 80% 4.1 mph SW6.6 kmh SW 4.9 mph7.9 kmh 29.61 in1002.7 mb 0.00 in0.0 mm 0.00 in0.0 mm 0.09 in2.3 mm
10:10 PM 45.3°F7.4°C 39.5°F4.2°C 80% 5.3 mph SW8.5 kmh SW 6.6 mph10.6 kmh 29.62 in1003.0 mb 0.00 in0.0 mm 0.00 in0.0 mm 0.09 in2.3 mm
10:20 PM 45.0°F7.2°C 39.2°F4.0°C 80% 4.9 mph SW7.9 kmh SW 4.9 mph7.9 kmh 29.62 in1003.0 mb 0.00 in0.0 mm 0.00 in0.0 mm 0.09 in2.3 mm
10:30 PM 45.0°F7.2°C 39.2°F4.0°C 80% 4.9 mph SW7.9 kmh SW 4.9 mph7.9 kmh 29.62 in1003.0 mb 0.00 in0.0 mm 0.00 in0.0 mm 0.09 in2.3 mm
10:40 PM 45.0°F7.2°C 39.2°F4.0°C 80% 6.2 mph SW10.0 kmh SW 6.6 mph10.6 kmh 29.62 in1003.0 mb 0.00 in0.0 mm 0.00 in0.0 mm 0.09 in2.3 mm
10:50 PM 45.3°F7.4°C 39.5°F4.2°C 80% 6.2 mph WSW10.0 kmh WSW 6.6 mph10.6 kmh 29.63 in1003.4 mb 0.00 in0.0 mm 0.00 in0.0 mm 0.09 in2.3 mm
11:00 PM 45.3°F7.4°C 39.5°F4.2°C 80% 4.2 mph SW6.8 kmh SW 5.9 mph9.5 kmh 29.63 in1003.4 mb 0.00 in0.0 mm 0.00 in0.0 mm 0.09 in2.3 mm
11:10 PM 45.5°F7.5°C 39.7°F4.3°C 80% 6.3 mph SW10.1 kmh SW 7.6 mph12.2 kmh 29.64 in1003.7 mb 0.00 in0.0 mm 0.00 in0.0 mm 0.09 in2.3 mm
11:20 PM 45.3°F7.4°C 39.5°F4.2°C 80% 6.4 mph SW10.3 kmh SW 6.6 mph10.6 kmh 29.63 in1003.4 mb 0.00 in0.0 mm 0.00 in0.0 mm 0.09 in2.3 mm
11:30 PM 45.1°F7.3°C 39.3°F4.1°C 80% 6.0 mph S9.7 kmh S 6.6 mph10.6 kmh 29.64 in1003.7 mb 0.00 in0.0 mm 0.00 in0.0 mm 0.09 in2.3 mm
11:40 PM 45.0°F7.2°C 39.2°F4.0°C 80% 7.6 mph SW12.2 kmh SW 9.1 mph14.6 kmh 29.64 in1003.7 mb 0.00 in0.0 mm 0.00 in0.0 mm 0.09 in2.3 mm
11:50 PM 44.8°F7.1°C 39.0°F3.9°C 80% 7.3 mph S11.7 kmh S 8.4 mph13.5 kmh 29.64 in1003.7 mb 0.00 in0.0 mm 0.00 in0.0 mm 0.09 in2.3 mm